Time;durP1;ratioP1;P1;durP2;ratioP2;P2;SDS_P1;SDS_P2;PMS_P1;PMS_P2;Temp;Humidity;BMP_temperature;BMP_pressure;BME280_temperature;BME280_humidity;BME280_pressure;Samples;Min_cycle;Max_cycle;Signal;HPM_P1;HPM_P2
2021/07/08 00:00:29;;;;;;;5.53;3.46;;;;;;;;;;359208;146;859189;-58
2021/07/08 00:01:30;;;;;;;8.13;3.69;;;;;;;;;;359340;148;858211;-59
2021/07/08 00:02:32;;;;;;;8.29;3.71;;;;;;;;;;360768;149;865211;-59
2021/07/08 00:03:34;;;;;;;4.47;3.30;;;;;;;;;;359100;147;857235;-58
2021/07/08 00:04:39;;;;;;;8.05;3.91;;;;;;;;;;359075;146;858128;-60
2021/07/08 00:05:41;;;;;;;6.66;3.39;;;;;;;;;;357422;149;859729;-59
2021/07/08 00:06:45;;;;;;;6.48;3.59;;;;;;;;;;356851;147;858685;-58
2021/07/08 00:07:46;;;;;;;7.98;3.55;;;;;;;;;;359326;147;866268;-58
2021/07/08 00:08:48;;;;;;;8.45;3.78;;;;;;;;;;356533;147;858264;-58
2021/07/08 00:09:49;;;;;;;5.94;3.50;;;;;;;;;;358757;150;857364;-59
2021/07/08 00:10:52;;;;;;;5.44;3.59;;;;;;;;;;350695;150;857270;-58
2021/07/08 00:11:54;;;;;;;6.48;3.38;;;;;;;;;;358067;148;864728;-58
2021/07/08 00:12:56;;;;;;;6.86;3.39;;;;;;;;;;361153;148;857195;-58
2021/07/08 00:13:58;;;;;;;7.08;3.79;;;;;;;;;;354452;150;857400;-58
2021/07/08 00:14:59;;;;;;;9.76;3.58;;;;;;;;;;356643;147;857377;-58
2021/07/08 00:16:01;;;;;;;9.50;3.64;;;;;;;;;;356449;147;857312;-59
2021/07/08 00:17:05;;;;;;;8.64;3.99;;;;;;;;;;352097;153;864874;-58
2021/07/08 00:18:08;;;;;;;6.49;4.04;;;;;;;;;;357609;149;857339;-58
2021/07/08 00:19:09;;;;;;;5.72;3.82;;;;;;;;;;357414;147;857458;-58
2021/07/08 00:20:13;;;;;;;5.19;3.53;;;;;;;;;;359612;149;858678;-57
2021/07/08 00:21:15;;;;;;;6.31;4.22;;;;;;;;;;355109;149;858911;-58
2021/07/08 00:22:16;;;;;;;7.35;3.88;;;;;;;;;;358978;147;858628;-58
2021/07/08 00:23:18;;;;;;;6.70;3.93;;;;;;;;;;358909;149;857201;-58
2021/07/08 00:24:20;;;;;;;6.35;3.71;;;;;;;;;;359898;149;857213;-58
2021/07/08 00:25:23;;;;;;;8.46;3.99;;;;;;;;;;358840;148;857203;-58
2021/07/08 00:26:25;;;;;;;6.19;3.62;;;;;;;;;;356428;148;857309;-58
2021/07/08 00:27:27;;;;;;;7.34;3.63;;;;;;;;;;357254;150;865656;-58
2021/07/08 00:28:28;;;;;;;9.42;4.02;;;;;;;;;;359624;148;857311;-58
2021/07/08 00:29:30;;;;;;;8.71;3.99;;;;;;;;;;356108;149;857429;-58
2021/07/08 00:30:32;;;;;;;7.86;3.91;;;;;;;;;;353838;149;857322;-58
2021/07/08 00:31:33;;;;;;;6.58;3.96;;;;;;;;;;356758;149;857634;-58
2021/07/08 00:32:35;;;;;;;5.90;3.38;;;;;;;;;;357947;147;864746;-60
2021/07/08 00:33:37;;;;;;;6.09;3.85;;;;;;;;;;351486;150;857346;-58
2021/07/08 00:34:38;;;;;;;7.57;3.70;;;;;;;;;;355607;149;866547;-57
2021/07/08 00:35:40;;;;;;;10.00;4.30;;;;;;;;;;357417;148;868638;-57
2021/07/08 00:36:44;;;;;;;6.33;4.02;;;;;;;;;;360708;146;857867;-58
2021/07/08 00:37:46;;;;;;;8.37;4.29;;;;;;;;;;361202;148;857155;-58
2021/07/08 00:38:47;;;;;;;7.60;4.60;;;;;;;;;;355337;148;857758;-58
2021/07/08 00:39:49;;;;;;;10.26;5.04;;;;;;;;;;359414;146;865023;-58
2021/07/08 00:40:51;;;;;;;9.48;5.09;;;;;;;;;;355482;147;858626;-58
2021/07/08 00:41:52;;;;;;;8.80;5.35;;;;;;;;;;358631;148;858794;-58
2021/07/08 00:42:54;;;;;;;10.19;5.30;;;;;;;;;;359078;148;857371;-58
2021/07/08 00:43:56;;;;;;;10.15;5.55;;;;;;;;;;356480;148;857222;-58
2021/07/08 00:44:57;;;;;;;8.22;5.19;;;;;;;;;;357734;148;865038;-58
2021/07/08 00:45:59;;;;;;;8.17;5.06;;;;;;;;;;357174;148;857251;-58
2021/07/08 00:47:00;;;;;;;11.91;5.80;;;;;;;;;;356907;148;857288;-58
2021/07/08 00:48:02;;;;;;;8.21;5.91;;;;;;;;;;359354;147;865434;-59
2021/07/08 00:49:03;;;;;;;8.74;5.62;;;;;;;;;;355584;149;857371;-58
2021/07/08 00:50:06;;;;;;;11.99;5.62;;;;;;;;;;352223;150;865722;-58
2021/07/08 00:51:08;;;;;;;8.96;5.07;;;;;;;;;;345941;153;865143;-58
2021/07/08 00:52:09;;;;;;;14.16;6.31;;;;;;;;;;344188;155;857456;-58
2021/07/08 00:53:11;;;;;;;10.96;5.77;;;;;;;;;;351856;150;857352;-56
2021/07/08 00:54:12;;;;;;;13.03;6.24;;;;;;;;;;350032;149;857703;-57
2021/07/08 00:55:14;;;;;;;9.54;6.42;;;;;;;;;;343740;154;866652;-57
2021/07/08 00:56:16;;;;;;;11.39;6.09;;;;;;;;;;348486;150;858736;-57
2021/07/08 00:57:18;;;;;;;8.99;6.05;;;;;;;;;;355945;149;859874;-57
2021/07/08 00:58:19;;;;;;;10.61;6.12;;;;;;;;;;351968;150;857737;-57
2021/07/08 00:59:21;;;;;;;10.96;5.93;;;;;;;;;;348866;152;857192;-58
2021/07/08 01:00:24;;;;;;;9.07;6.09;;;;;;;;;;353772;150;857297;-57
2021/07/08 01:01:26;;;;;;;11.12;6.47;;;;;;;;;;353088;148;857410;-57
2021/07/08 01:02:28;;;;;;;10.40;5.98;;;;;;;;;;352796;150;857316;-58
2021/07/08 01:03:29;;;;;;;10.69;5.99;;;;;;;;;;353799;152;857266;-58
2021/07/08 01:04:31;;;;;;;11.84;6.14;;;;;;;;;;353315;148;857323;-57
2021/07/08 01:05:32;;;;;;;7.22;5.64;;;;;;;;;;352359;148;859131;-57
2021/07/08 01:06:40;;;;;;;11.58;5.90;;;;;;;;;;355505;150;858982;-57
2021/07/08 01:07:38;;;;;;;9.53;5.74;;;;;;;;;;356076;150;857330;-57
2021/07/08 01:08:40;;;;;;;13.69;5.79;;;;;;;;;;344618;153;860490;-57
2021/07/08 01:09:41;;;;;;;9.68;6.29;;;;;;;;;;341696;155;857255;-58
2021/07/08 01:10:44;;;;;;;9.07;5.81;;;;;;;;;;346012;155;857157;-57
2021/07/08 01:11:46;;;;;;;8.07;5.93;;;;;;;;;;350475;148;857229;-57
2021/07/08 01:12:48;;;;;;;11.39;5.87;;;;;;;;;;349074;151;857402;-57
2021/07/08 01:13:49;;;;;;;8.49;5.42;;;;;;;;;;345378;152;857250;-57
2021/07/08 01:14:51;;;;;;;10.94;5.68;;;;;;;;;;341759;157;858191;-57
2021/07/08 01:15:52;;;;;;;10.99;5.89;;;;;;;;;;346244;153;857745;-57
2021/07/08 01:16:54;;;;;;;8.52;5.47;;;;;;;;;;353391;150;866712;-57
2021/07/08 01:17:56;;;;;;;11.35;5.71;;;;;;;;;;348444;152;857200;-57
2021/07/08 01:18:57;;;;;;;10.39;5.50;;;;;;;;;;351931;149;857329;-57
2021/07/08 01:19:59;;;;;;;13.11;5.82;;;;;;;;;;345765;154;857290;-57
2021/07/08 01:21:20;;;;;;;7.11;5.31;;;;;;;;;;352826;152;858965;-58
2021/07/08 01:22:21;;;;;;;11.67;6.14;;;;;;;;;;353448;150;866344;-58
2021/07/08 01:23:23;;;;;;;9.74;5.74;;;;;;;;;;349737;152;857723;-58
2021/07/08 01:24:25;;;;;;;8.54;5.24;;;;;;;;;;347223;152;857514;-57
2021/07/08 01:25:27;;;;;;;7.48;5.32;;;;;;;;;;347171;152;857609;-57
2021/07/08 01:26:31;;;;;;;9.87;5.69;;;;;;;;;;351870;149;857334;-58
2021/07/08 01:27:32;;;;;;;10.96;5.88;;;;;;;;;;353662;152;857863;-58
2021/07/08 01:28:34;;;;;;;9.09;5.50;;;;;;;;;;346211;154;865005;-58
2021/07/08 01:29:35;;;;;;;8.39;5.86;;;;;;;;;;348017;152;857765;-60
2021/07/08 01:30:38;;;;;;;10.06;5.72;;;;;;;;;;351934;149;859187;-58
2021/07/08 01:31:40;;;;;;;9.91;5.52;;;;;;;;;;353859;152;859082;-58
2021/07/08 01:32:41;;;;;;;11.05;5.45;;;;;;;;;;353181;150;866766;-59
2021/07/08 01:33:44;;;;;;;12.39;5.75;;;;;;;;;;350881;148;858965;-58
2021/07/08 01:34:45;;;;;;;8.86;6.04;;;;;;;;;;359660;149;858950;-58
2021/07/08 01:35:47;;;;;;;8.51;5.57;;;;;;;;;;348611;149;859058;-57
2021/07/08 01:36:48;;;;;;;11.69;6.35;;;;;;;;;;352405;148;858167;-57
2021/07/08 01:37:50;;;;;;;11.56;5.52;;;;;;;;;;349721;151;866908;-58
2021/07/08 01:38:51;;;;;;;12.44;5.51;;;;;;;;;;353823;152;859449;-58
2021/07/08 01:39:53;;;;;;;8.07;5.59;;;;;;;;;;354486;148;859627;-58
2021/07/08 01:40:55;;;;;;;9.81;4.86;;;;;;;;;;354261;147;857364;-58
2021/07/08 01:41:56;;;;;;;6.79;4.58;;;;;;;;;;354638;151;864938;-58
2021/07/08 01:42:58;;;;;;;8.80;4.47;;;;;;;;;;352511;152;857340;-58
2021/07/08 01:44:00;;;;;;;11.82;4.36;;;;;;;-147.14;69.02;151230.75;351055;149;857825;-58
2021/07/08 01:45:03;;;;;;;8.41;5.25;;;;;;;;;;349948;149;859070;-58
2021/07/08 01:46:05;;;;;;;7.11;4.29;;;;;;;;;;349677;150;857433;-58
2021/07/08 01:47:06;;;;;;;9.21;4.42;;;;;;;;;;352447;152;864831;-58
2021/07/08 01:48:08;;;;;;;7.89;4.38;;;;;;;;;;357700;147;857403;-58
2021/07/08 01:49:09;;;;;;;8.68;4.89;;;;;;;;;;358810;150;859169;-58
2021/07/08 01:50:13;;;;;;;14.18;4.91;;;;;;;;;;354364;150;865748;-57
2021/07/08 01:51:25;;;;;;;8.63;5.06;;;;;;;;;;351263;151;858888;-57
2021/07/08 01:52:27;;;;;;;11.09;5.13;;;;;;;;;;350916;150;857171;-58
2021/07/08 01:53:28;;;;;;;8.71;5.14;;;;;;;;;;358655;150;859304;-58
2021/07/08 01:54:30;;;;;;;9.78;4.46;;;;;;;;;;358550;147;859189;-57
2021/07/08 01:55:31;;;;;;;7.73;4.60;;;;;;;;;;357527;147;867009;-58
2021/07/08 01:56:34;;;;;;;11.84;4.49;;;;;;;;;;362160;147;857441;-57
2021/07/08 01:57:37;;;;;;;10.69;4.50;;;;;;;;;;362466;147;859028;-58
2021/07/08 01:58:39;;;;;;;6.00;3.96;;;;;;;;;;357571;147;864963;-58
2021/07/08 01:59:40;;;;;;;9.81;4.69;;;;;;;;;;355359;151;858834;-59
2021/07/08 02:00:42;;;;;;;11.07;5.35;;;;;;;;;;355397;151;859013;-58
2021/07/08 02:01:44;;;;;;;8.65;5.07;;;;;;;;;;345321;152;858769;-58
2021/07/08 02:02:46;;;;;;;7.32;4.82;;;;;;;;;;343121;152;865019;-58
2021/07/08 02:03:47;;;;;;;7.48;5.00;;;;;;;;;;348037;155;857307;-58
2021/07/08 02:04:49;;;;;;;6.65;4.74;;;;;;;;;;353284;150;865224;-58
2021/07/08 02:05:50;;;;;;;8.81;5.27;;;;;;;;;;352929;149;857424;-57
2021/07/08 02:06:52;;;;;;;8.42;4.98;;;;;;;;;;347548;155;866461;-58
2021/07/08 02:07:54;;;;;;;13.11;5.12;;;;;;;;;;353248;152;857256;-58
2021/07/08 02:08:56;;;;;;;7.24;5.15;;;;;;;;;;353044;150;857275;-58
2021/07/08 02:09:57;;;;;;;8.16;4.59;;;;;;;;;;352067;149;857274;-57
2021/07/08 02:10:59;;;;;;;7.16;4.93;;;;;;;;;;351264;152;857189;-57
2021/07/08 02:12:01;;;;;;;14.10;5.06;;;;;;;;;;352996;152;864789;-57
2021/07/08 02:13:03;;;;;;;8.51;4.91;;;;;;;;;;353285;149;857164;-58
2021/07/08 02:14:04;;;;;;;7.44;4.65;;;;;;;;;;351699;152;857432;-58
2021/07/08 02:15:07;;;;;;;7.05;4.61;;;;;;;;;;353744;152;864865;-57
2021/07/08 02:16:10;;;;;;;9.19;5.33;;;;;;;;;;353534;150;857888;-57
2021/07/08 02:17:12;;;;;;;10.44;5.11;;;;;;;;;;353838;149;865762;-58
2021/07/08 02:18:14;;;;;;;10.03;5.16;;;;;;;;;;352198;149;857768;-57
2021/07/08 02:19:15;;;;;;;8.55;5.09;;;;;;;;;;350067;152;858510;-57
2021/07/08 02:20:19;;;;;;;9.09;5.01;;;;;;;;;;352436;149;857167;-58
2021/07/08 02:21:20;;;;;;;6.05;4.69;;;;;;;;;;353603;152;858225;-58
2021/07/08 02:22:22;;;;;;;10.13;5.14;;;;;;;;;;340349;152;857292;-59
2021/07/08 02:23:23;;;;;;;8.68;4.93;;;;;;;;;;353430;152;857376;-59
2021/07/08 02:24:25;;;;;;;11.63;5.23;;;;;;;;;;353083;149;857412;-58
2021/07/08 02:25:26;;;;;;;9.70;5.23;;;;;;;;;;352965;152;858246;-58
2021/07/08 02:26:30;;;;;;;7.44;4.85;;;;;;;;;;351055;150;857567;-58
2021/07/08 02:27:31;;;;;;;7.61;4.93;;;;;;;;;;353564;149;857297;-58
2021/07/08 02:28:33;;;;;;;10.96;4.75;;;;;;;;;;353730;152;858978;-58
2021/07/08 02:29:35;;;;;;;10.22;5.13;;;;;;;;;;352334;152;865550;-57
2021/07/08 02:30:38;;;;;;;11.63;5.11;;;;;;;;;;353027;151;865334;-58
2021/07/08 02:31:40;;;;;;;12.19;5.46;;;;;;;;;;347465;151;857295;-58
2021/07/08 02:32:41;;;;;;;13.30;5.26;;;;;;;;;;348781;154;859732;-58
2021/07/08 02:33:43;;;;;;;9.92;5.14;;;;;;;;;;349365;154;857413;-58
2021/07/08 02:34:47;;;;;;;9.87;4.88;;;;;;;;;;352397;150;864949;-57
2021/07/08 02:35:48;;;;;;;11.43;4.99;;;;;;;;;;350057;152;857677;-58
2021/07/08 02:36:50;;;;;;;6.24;4.87;;;;;;;;;;347565;153;859709;-58
2021/07/08 02:37:52;;;;;;;11.89;5.04;;;;;;;;;;346981;153;857461;-58
2021/07/08 02:38:54;;;;;;;10.89;4.94;;;;;;;;;;353901;150;857339;-58
2021/07/08 02:39:55;;;;;;;9.80;5.03;;;;;;;;;;352254;151;865104;-58
2021/07/08 02:40:57;;;;;;;6.83;5.04;;;;;;;;;;352076;150;857270;-58
2021/07/08 02:41:59;;;;;;;9.63;5.03;;;;;;;;;;353500;150;864725;-58
2021/07/08 02:43:00;;;;;;;7.55;4.62;;;;;;;;;;350707;152;857208;-57
2021/07/08 02:44:02;;;;;;;7.37;4.58;;;;;;;;;;353117;151;857395;-57
2021/07/08 02:45:05;;;;;;;8.76;4.73;;;;;;;;;;352599;150;864862;-57
2021/07/08 02:46:07;;;;;;;10.94;5.11;;;;;;;;;;347105;152;857326;-58
2021/07/08 02:47:08;;;;;;;8.87;4.87;;;;;;;;;;353868;152;857932;-58
2021/07/08 02:48:11;;;;;;;8.58;4.36;;;;;;;;;;349132;151;856910;-58
2021/07/08 02:49:13;;;;;;;11.19;5.24;;;;;;;;;;351834;153;857394;-57
2021/07/08 02:50:17;;;;;;;8.58;4.61;;;;;;;;;;345267;155;857214;-56
2021/07/08 02:51:18;;;;;;;10.29;4.51;;;;;;;;;;350729;152;857980;-57
2021/07/08 02:52:20;;;;;;;5.89;4.44;;;;;;;;;;349217;153;857359;-58
2021/07/08 02:53:22;;;;;;;7.56;4.68;;;;;;;;;;350613;152;857214;-57
2021/07/08 02:54:23;;;;;;;9.96;4.74;;;;;;;;;;350239;154;857155;-57
2021/07/08 02:55:25;;;;;;;9.62;4.79;;;;;;;;;;347969;152;864890;-58
2021/07/08 02:56:28;;;;;;;9.74;4.12;;;;;;;;;;344726;153;858736;-58
2021/07/08 02:57:29;;;;;;;6.44;4.40;;;;;;;;;;343185;153;857325;-57
2021/07/08 02:58:31;;;;;;;9.01;4.16;;;;;;;;;;345030;154;859143;-58
2021/07/08 02:59:32;;;;;;;8.89;4.25;;;;;;;;;;348224;151;857990;-57
2021/07/08 03:00:34;;;;;;;11.43;4.14;;;;;;;;;;353642;150;859111;-56
2021/07/08 03:01:36;;;;;;;17.99;4.77;;;;;;;;;;357121;150;857375;-56
2021/07/08 03:02:38;;;;;;;11.56;5.51;;;;;;;;;;355495;150;866384;-58
2021/07/08 03:03:39;;;;;;;10.81;4.64;;;;;;;;;;357004;149;859234;-58
2021/07/08 03:04:41;;;;;;;9.45;4.49;;;;;;;;;;356233;148;860779;-57
2021/07/08 03:05:42;;;;;;;9.74;5.08;;;;;;;;;;352958;151;858017;-58
2021/07/08 03:06:44;;;;;;;9.49;4.44;;;;;;;;;;355683;149;857217;-57
2021/07/08 03:07:46;;;;;;;8.39;4.52;;;;;;;;;;352081;150;857839;-58
2021/07/08 03:08:47;;;;;;;7.16;4.64;;;;;;;;;;356649;150;857317;-57
2021/07/08 03:09:49;;;;;;;7.47;5.00;;;;;;;;;;356246;149;857210;-57
2021/07/08 03:10:51;;;;;;;9.98;4.44;;;;;;;;;;356260;149;857208;-58
2021/07/08 03:11:52;;;;;;;6.94;4.55;;;;;;;;;;357043;150;857231;-57
2021/07/08 03:12:54;;;;;;;9.23;4.79;;;;;;;;;;354871;150;857282;-57
2021/07/08 03:13:55;;;;;;;8.81;4.62;;;;;;;;;;356028;149;857329;-57
2021/07/08 03:14:57;;;;;;;6.33;4.49;;;;;;;;;;349795;152;859546;-58
2021/07/08 03:15:59;;;;;;;9.85;4.61;;;;;;;;;;358886;149;859467;-58
2021/07/08 03:17:00;;;;;;;13.37;4.41;;;;;;;;;;356676;147;857199;-58
2021/07/08 03:18:02;;;;;;;12.96;4.67;;;;;;;;;;357301;147;864944;-59
2021/07/08 03:19:03;;;;;;;6.24;4.71;;;;;;;;;;350340;152;857996;-57
2021/07/08 03:20:12;;;;;;;10.96;4.64;;;;;;;;;;349350;150;857327;-58
2021/07/08 03:21:14;;;;;;;8.34;4.60;;;;;;;;;;358914;147;864058;-56
2021/07/08 03:22:15;;;;;;;9.17;4.07;;;;;;;;;;359477;149;858099;-57
2021/07/08 03:23:17;;;;;;;15.42;5.36;;;;;;;;;;352242;150;857360;-59
2021/07/08 03:24:18;;;;;;;11.34;4.54;;;;;;;;;;353562;150;857783;-58
2021/07/08 03:25:20;;;;;;;9.62;4.04;;;;;;;;;;359750;147;858922;-59
2021/07/08 03:26:24;;;;;;;7.65;4.57;;;;;;;;;;353722;148;858120;-58
2021/07/08 03:27:25;;;;;;;8.72;4.54;;;;;;;;;;350537;150;864795;-57
2021/07/08 03:28:27;;;;;;;12.66;5.15;;;;;;;;;;360164;147;859076;-59
2021/07/08 03:29:29;;;;;;;7.19;4.41;;;;;;;;;;355225;148;858106;-60
2021/07/08 03:30:31;;;;;;;10.80;4.35;;;;;;;;;;356627;150;864912;-59
2021/07/08 03:31:33;;;;;;;6.96;4.26;;;;;;;;;;356702;147;865402;-58
2021/07/08 03:32:34;;;;;;;7.91;5.09;;;;;;;;;;358241;147;857183;-59
2021/07/08 03:33:36;;;;;;;11.63;5.33;;;;;;;;;;357596;149;857225;-58
2021/07/08 03:34:37;;;;;;;15.09;5.32;;;;;;;;;;355965;147;857244;-57
2021/07/08 03:35:39;;;;;;;11.81;5.71;;;;;;;;;;357527;147;857273;-58
2021/07/08 03:36:41;;;;;;;11.59;5.54;;;;;;;;;;358085;150;857256;-59
2021/07/08 03:37:42;;;;;;;13.88;5.18;;;;;;;;;;356104;148;857241;-57
2021/07/08 03:38:44;;;;;;;8.85;4.60;;;;;;;;;;356937;150;865874;-57
2021/07/08 03:39:45;;;;;;;17.73;5.36;;;;;;;;;;359455;149;858248;-58
2021/07/08 03:40:48;;;;;;;14.01;5.49;;;;;;;;;;354334;149;857365;-57
2021/07/08 03:41:49;;;;;;;14.67;6.46;;;;;;;;;;356796;147;858759;-58
2021/07/08 03:42:52;;;;;;;12.79;5.27;;;;;;;;;;359549;147;860050;-58
2021/07/08 03:43:53;;;;;;;16.39;5.07;;;;;;;;;;355096;150;865022;-59
2021/07/08 03:44:55;;;;;;;17.80;6.19;;;;;;;;;;351341;150;859124;-58
2021/07/08 03:45:56;;;;;;;12.89;5.46;;;;;;;;;;353709;150;857382;-59
2021/07/08 03:46:58;;;;;;;11.95;5.14;;;;;;;;;;355306;151;857199;-58
2021/07/08 03:47:59;;;;;;;15.35;5.84;;;;;;;;;;355168;151;864850;-59
2021/07/08 03:49:01;;;;;;;9.51;5.22;;;;;;;;;;351996;150;857130;-60
2021/07/08 03:50:04;;;;;;;11.13;5.28;;;;;;;;;;355205;150;857517;-58
2021/07/08 03:51:05;;;;;;;11.18;5.18;;;;;;;;;;355053;151;857354;-58
2021/07/08 03:52:07;;;;;;;15.14;5.10;;;;;;;;;;354113;149;865125;-58
2021/07/08 03:53:09;;;;;;;11.99;4.86;;;;;;;;;;353958;149;857395;-58
2021/07/08 03:54:10;;;;;;;16.73;5.16;;;;;;;;;;354737;151;865057;-59
2021/07/08 03:55:13;;;;;;;16.31;5.74;;;;;;;;;;355042;151;857760;-59
2021/07/08 03:56:16;;;;;;;7.62;4.54;;;;;;;;;;353376;150;857328;-58
2021/07/08 03:57:17;;;;;;;11.59;5.11;;;;;;;;;;355214;150;858821;-58
2021/07/08 03:58:19;;;;;;;13.24;5.49;;;;;;;;;;357890;147;857788;-57
2021/07/08 03:59:20;;;;;;;10.04;4.71;;;;;;;;;;352980;149;857228;-57
2021/07/08 04:00:34;;;;;;;8.69;4.81;;;;;;;;;;354788;150;857255;-57
2021/07/08 04:01:36;;;;;;;12.82;5.01;;;;;;;;;;354655;151;857365;-58
2021/07/08 04:02:37;;;;;;;9.24;5.14;;;;;;;;;;352468;151;857789;-57
2021/07/08 04:03:39;;;;;;;10.59;5.24;;;;;;;;;;354507;150;859023;-58
2021/07/08 04:04:41;;;;;;;10.16;5.17;;;;;;;;;;351124;151;857174;-57
2021/07/08 04:05:44;;;;;;;11.09;4.89;;;;;;;;;;351961;151;857229;-58
2021/07/08 04:06:45;;;;;;;7.59;4.79;;;;;;;;;;352525;150;864930;-58
2021/07/08 04:07:47;;;;;;;10.84;5.54;;;;;;;;;;354710;150;857266;-57
2021/07/08 04:08:48;;;;;;;11.00;5.18;;;;;;;;;;354640;151;857196;-59
2021/07/08 04:09:50;;;;;;;12.61;5.66;;;;;;;;;;354472;149;857141;-58
2021/07/08 04:10:52;;;;;;;10.56;4.69;;;;;;;;;;356144;149;859015;-60
2021/07/08 04:11:53;;;;;;;9.18;4.78;;;;;;;;;;349819;150;865978;-59
2021/07/08 04:12:55;;;;;;;11.01;5.04;;;;;;;;;;353661;151;859736;-60
2021/07/08 04:13:56;;;;;;;10.35;4.79;;;;;;;;;;356211;147;858533;-59
2021/07/08 04:14:58;;;;;;;9.98;4.99;;;;;;;;;;356351;147;857363;-59
2021/07/08 04:16:00;;;;;;;15.17;4.72;;;;;;;;;;356236;150;857216;-59
2021/07/08 04:17:02;;;;;;;9.17;4.76;;;;;;;;;;357357;147;857342;-59
2021/07/08 04:18:04;;;;;;;9.82;4.26;;;;;;;;;;356515;149;857360;-61
2021/07/08 04:19:05;;;;;;;7.49;3.83;;;;;;;;;;357832;147;866241;-61
2021/07/08 04:20:08;;;;;;;7.38;4.11;;;;;;;;;;357878;147;864736;-62
2021/07/08 04:21:10;;;;;;;9.00;4.99;;;;;;;;;;355616;149;857460;-61
2021/07/08 04:22:11;;;;;;;11.23;4.17;;;;;;;;;;355734;150;865521;-60
2021/07/08 04:23:13;;;;;;;11.72;3.99;;;;;;;;;;358127;150;857265;-59
2021/07/08 04:24:14;;;;;;;8.06;3.90;;;;;;;;;;356361;149;857237;-59
2021/07/08 04:25:16;;;;;;;11.85;4.18;;;;;;;;;;355954;149;857230;-59
2021/07/08 04:26:18;;;;;;;5.34;3.87;;;;;;;;;;358083;150;858973;-59
2021/07/08 04:27:20;;;;;;;8.37;4.56;;;;;;;;;;356229;150;857289;-60
2021/07/08 04:28:21;;;;;;;7.61;4.51;;;;;;;;;;355568;149;857427;-60
2021/07/08 04:29:23;;;;;;;7.60;4.03;;;;;;;;;;352395;147;859474;-59
2021/07/08 04:30:26;;;;;;;7.59;3.75;;;;;;;;;;354196;150;857817;-59
2021/07/08 04:31:28;;;;;;;13.49;4.27;;;;;;;;;;349947;151;858836;-60
2021/07/08 04:32:30;;;;;;;10.85;4.14;;;;;;;;;;350816;151;858707;-62
2021/07/08 04:33:31;;;;;;;14.76;4.80;;;;;;;;;;351708;150;857482;-63
2021/07/08 04:34:33;;;;;;;15.05;5.03;;;;;;;;;;353958;149;864869;-61
2021/07/08 04:35:40;;;;;;;14.91;6.42;;;;;;;;;;356200;149;856803;-63
2021/07/08 04:36:42;;;;;;;12.01;4.42;;;;;;;;;;357125;149;857231;-61
2021/07/08 04:37:44;;;;;;;8.38;4.20;;;;;;;;;;353193;150;859266;-60
2021/07/08 04:38:49;;;;;;;6.14;3.72;;;;;;;;;;354262;150;857418;-61
2021/07/08 04:39:49;;;;;;;10.93;3.67;;;;;;;;;;357696;147;857345;-61
2021/07/08 04:40:51;;;;;;;12.15;3.94;;;;;;;;;;356835;150;857375;-59
2021/07/08 04:41:52;;;;;;;10.55;3.74;;;;;;;;;;356234;149;865785;-59
2021/07/08 04:42:54;;;;;;;9.83;4.08;;;;;;;;;;355416;149;858270;-59
2021/07/08 04:43:55;;;;;;;8.79;4.02;;;;;;;;;;352181;150;859796;-59
2021/07/08 04:44:57;;;;;;;9.89;3.56;;;;;;;;;;351642;153;858651;-58
2021/07/08 04:45:58;;;;;;;6.41;3.77;;;;;;;;;;355698;150;857222;-60
2021/07/08 04:47:01;;;;;;;13.72;4.21;;;;;;;;;;357755;147;857206;-59
2021/07/08 04:48:03;;;;;;;8.89;3.63;;;;;;;;;;357804;150;864950;-58
2021/07/08 04:49:05;;;;;;;9.35;4.36;;;;;;;;;;358109;148;857388;-57
2021/07/08 04:50:09;;;;;;;14.61;4.29;;;;;;;;;;354615;147;860481;-59
2021/07/08 04:51:11;;;;;;;9.24;4.55;;;;;;;;;;355155;151;864815;-58
2021/07/08 04:52:13;;;;;;;7.84;4.09;;;;;;;;;;351613;153;858015;-58
2021/07/08 04:53:16;;;;;;;10.40;3.75;;;;;;;;;;351304;149;857381;-57
2021/07/08 04:54:17;;;;;;;12.46;4.36;;;;;;;;;;358082;148;857293;-58
2021/07/08 04:55:23;;;;;;;11.74;4.32;;;;;;;;;;352561;150;860064;-58
2021/07/08 04:56:25;;;;;;;16.43;4.80;;;;;;;;;;353384;149;858664;-59
2021/07/08 04:57:27;;;;;;;12.89;4.90;;;;;;;;;;356071;148;858296;-59
2021/07/08 04:58:29;;;;;;;15.14;4.37;;;;;;;;;;357229;151;859058;-58
2021/07/08 04:59:32;;;;;;;12.35;4.41;;;;;;;;;;355991;150;866722;-59
2021/07/08 05:00:34;;;;;;;9.46;4.30;;;;;;;;;;354196;148;858954;-59
2021/07/08 05:01:36;;;;;;;9.94;4.18;;;;;;;;;;350386;153;857273;-59
2021/07/08 05:02:41;;;;;;;11.31;3.97;;;;;;;;;;350916;153;858308;-58
2021/07/08 05:03:42;;;;;;;11.67;4.18;;;;;;;;;;350171;150;865097;-58
2021/07/08 05:04:44;;;;;;;13.49;4.38;;;;;;;;;;349926;151;857369;-59
2021/07/08 05:05:47;;;;;;;14.89;3.94;;;;;;;;;;350318;153;864915;-58
2021/07/08 05:06:49;;;;;;;9.91;3.93;;;;;;;;;;350474;151;857262;-57
2021/07/08 05:07:51;;;;;;;17.92;4.63;;;;;;;;;;348906;150;857306;-58
2021/07/08 05:08:53;;;;;;;10.89;3.93;;;;;;;;;;348726;151;857343;-58
2021/07/08 05:09:54;;;;;;;12.52;4.84;;;;;;;;;;347812;153;859064;-58
2021/07/08 05:10:56;;;;;;;9.89;3.84;;;;;;;;;;348332;152;865815;-59
2021/07/08 05:11:57;;;;;;;9.45;4.21;;;;;;;;;;349904;152;865537;-59
2021/07/08 05:13:00;;;;;;;7.01;4.14;;;;;;;;;;350407;150;858514;-60
2021/07/08 05:14:01;;;;;;;13.46;4.18;;;;;;;;;;347505;153;857285;-60
2021/07/08 05:15:05;;;;;;;13.73;4.45;;;;;;;;;;348770;150;860095;-58
2021/07/08 05:16:07;;;;;;;10.17;4.21;;;;;;;;;;347879;153;857386;-59
2021/07/08 05:17:08;;;;;;;9.06;3.89;;;;;;;;;;347627;153;864924;-60
2021/07/08 05:18:10;;;;;;;12.89;5.06;;;;;;;;;;349624;151;857438;-60
2021/07/08 05:19:12;;;;;;;9.51;4.15;;;;;;;;;;350047;151;857451;-59
2021/07/08 05:20:15;;;;;;;18.75;8.53;;;;;;;;;;350027;153;858833;-59
2021/07/08 05:21:16;;;;;;;11.41;4.54;;;;;;;;;;350756;153;860317;-60
2021/07/08 05:22:21;;;;;;;9.91;4.37;;;;;;;;;;350588;150;857441;-59
2021/07/08 05:23:25;;;;;;;10.03;4.31;;;;;;;;;;349735;152;859018;-60
2021/07/08 05:24:26;;;;;;;11.40;3.80;;;;;;;;;;350075;153;857874;-59
2021/07/08 05:25:27;;;;;;;11.74;4.03;;;;;;;;;;347610;153;859932;-59
2021/07/08 05:26:30;;;;;;;11.27;4.29;;;;;;;;;;350549;153;857141;-59
2021/07/08 05:27:32;;;;;;;8.21;4.22;;;;;;;;;;347521;153;857366;-60
2021/07/08 05:28:34;;;;;;;15.44;4.19;;;;;;;;;;350344;151;857324;-58
2021/07/08 05:29:36;;;;;;;14.81;4.37;;;;;;;;;;350287;150;858973;-61
2021/07/08 05:30:39;;;;;;;15.08;3.97;;;;;;;;;;351760;149;858243;-59
2021/07/08 05:31:41;;;;;;;17.31;4.77;;;;;;;;;;355029;151;857300;-60
2021/07/08 05:32:43;;;;;;;9.20;3.79;;;;;;;;;;353940;150;859035;-61
2021/07/08 05:33:44;;;;;;;17.06;3.71;;;;;;;;;;354619;150;858267;-61
2021/07/08 05:34:46;;;;;;;11.68;3.77;;;;;;;;;;350894;149;865045;-58
2021/07/08 05:35:47;;;;;;;7.86;3.35;;;;;;;;;;353376;151;860003;-60
2021/07/08 05:36:49;;;;;;;10.89;3.88;;;;;;;;;;353629;149;857751;-60
2021/07/08 05:37:52;;;;;;;12.62;3.79;;;;;;;;;;355096;151;857283;-61
2021/07/08 05:38:54;;;;;;;16.57;4.06;;;;;;;;;;354285;151;857263;-61
2021/07/08 05:39:56;;;;;;;13.69;3.82;;;;;;;;;;352949;150;858751;-60
2021/07/08 05:40:57;;;;;;;12.06;3.96;;;;;;;;;;353848;149;857381;-62
2021/07/08 05:41:59;;;;;;;10.49;3.41;;;;;;;;;;354980;151;864933;-60
2021/07/08 05:43:01;;;;;;;23.17;4.04;;;;;;;;;;352612;150;858922;-60
2021/07/08 05:44:02;;;;;;;11.83;3.82;;;;;;;;;;352866;150;859361;-61
2021/07/08 05:45:05;;;;;;;18.16;3.55;;;;;;;;;;355204;151;858637;-61
2021/07/08 05:46:07;;;;;;;12.41;3.79;;;;;;;;;;353995;150;865071;-62
2021/07/08 05:47:08;;;;;;;9.36;3.38;;;;;;;;;;353889;149;860621;-60
2021/07/08 05:48:10;;;;;;;8.21;3.11;;;;;;;;;;357195;149;856655;-59
2021/07/08 05:49:11;;;;;;;9.88;3.45;;;;;;;;;;354645;149;857397;-59
2021/07/08 05:50:15;;;;;;;11.64;3.44;;;;;;;;;;356146;149;857453;-58
2021/07/08 05:51:16;;;;;;;9.26;3.37;;;;;;;;;;353433;150;858660;-61
2021/07/08 05:52:18;;;;;;;10.76;3.63;;;;;;;;;;351877;151;857288;-58
2021/07/08 05:53:20;;;;;;;15.71;3.86;;;;;;;;;;353487;151;865186;-58
2021/07/08 05:54:21;;;;;;;10.99;3.52;;;;;;;;;;354550;150;858254;-58
2021/07/08 05:55:23;;;;;;;10.54;3.97;;;;;;;;;;352304;150;858088;-60
2021/07/08 05:56:27;;;;;;;14.46;3.50;;;;;;;;;;351590;151;860013;-58
2021/07/08 05:57:28;;;;;;;12.29;3.80;;;;;;;;;;353616;149;859496;-58
2021/07/08 05:58:30;;;;;;;13.68;3.56;;;;;;;;;;347245;154;857517;-57
2021/07/08 05:59:32;;;;;;;9.39;3.25;;;;;;;;;;343998;153;866355;-58
2021/07/08 06:00:34;;;;;;;13.05;3.21;;;;;;;;;;352377;149;858581;-58
2021/07/08 06:01:36;;;;;;;11.40;3.54;;;;;;;;;;351902;150;857345;-58
2021/07/08 06:02:37;;;;;;;13.03;3.34;;;;;;;;;;348704;152;864841;-58
2021/07/08 06:03:39;;;;;;;6.30;2.87;;;;;;;;;;354755;152;857212;-60